Time;durP1;ratioP1;P1;durP2;ratioP2;P2;SDS_P1;SDS_P2;PMS_P1;PMS_P2;Temp;Humidity;BMP_temperature;BMP_pressure;BME280_temperature;BME280_humidity;BME280_pressure;Samples;Min_cycle;Max_cycle;Signal;HPM_P1;HPM_P2
2022/02/02 00:02:08;;;;;;;8.17;3.77;;;0.50;99.90;;;;;;4452338;27;655496;-73
2022/02/02 00:05:04;;;;;;;6.07;3.60;;;0.50;99.90;;;;;;4452591;27;655548;-77
2022/02/02 00:07:57;;;;;;;3.87;2.30;;;0.50;99.90;;;;;;4447186;27;656330;-75
2022/02/02 00:11:16;;;;;;;4.37;2.40;;;0.50;99.90;;;;;;4470311;27;656615;-73
2022/02/02 00:14:12;;;;;;;5.07;2.60;;;0.50;99.90;;;;;;4466612;27;655450;-74
2022/02/02 00:17:05;;;;;;;5.27;2.20;;;0.50;99.90;;;;;;4463938;27;655678;-74
2022/02/02 00:20:00;;;;;;;7.10;3.07;;;0.50;99.90;;;;;;4443745;27;656141;-76
2022/02/02 00:22:50;;;;;;;4.30;2.20;;;0.50;99.90;;;;;;4471062;27;655891;-75
2022/02/02 00:25:47;;;;;;;5.23;2.83;;;0.50;99.90;;;;;;4473593;27;655211;-76
2022/02/02 00:28:39;;;;;;;5.23;2.63;;;0.50;99.90;;;;;;4466711;27;656004;-74
2022/02/02 00:31:32;;;;;;;7.20;3.40;;;0.50;99.90;;;;;;4470686;27;655554;-73
2022/02/02 00:34:25;;;;;;;6.10;3.20;;;0.50;99.90;;;;;;4465659;27;656947;-74
2022/02/02 00:37:14;;;;;;;5.30;3.00;;;0.50;99.90;;;;;;4472758;27;655585;-73
2022/02/02 00:40:02;;;;;;;6.20;3.10;;;0.50;99.90;;;;;;4470250;27;655447;-73
2022/02/02 00:42:51;;;;;;;6.03;3.07;;;0.50;99.90;;;;;;4490578;27;656242;-71
2022/02/02 00:45:44;;;;;;;5.23;3.37;;;0.60;99.90;;;;;;4465790;27;656350;-72
2022/02/02 00:48:33;;;;;;;3.93;2.20;;;0.50;99.90;;;;;;4449997;27;655884;-73
2022/02/02 00:51:24;;;;;;;6.87;3.90;;;0.60;99.90;;;;;;4475989;27;656296;-70
2022/02/02 00:54:12;;;;;;;4.37;2.90;;;0.60;99.90;;;;;;4477043;27;656304;-73
2022/02/02 00:57:00;;;;;;;7.83;4.03;;;0.50;99.90;;;;;;4492592;27;655628;-75
2022/02/02 00:59:47;;;;;;;6.60;2.70;;;0.60;99.90;;;;;;4479047;27;655269;-73
2022/02/02 01:02:35;;;;;;;6.60;3.67;;;0.60;99.90;;;;;;4496776;27;655119;-75
2022/02/02 01:05:22;;;;;;;6.07;3.33;;;0.60;99.90;;;;;;4478174;27;656797;-75
2022/02/02 01:08:36;;;;;;;10.70;3.93;;;0.60;99.90;;;;;;4492340;27;655624;-75
2022/02/02 01:11:47;;;;;;;7.57;4.03;;;0.60;99.90;;;;;;4473920;27;656712;-75
2022/02/02 01:21:00;;;;;;;6.57;3.10;;;0.60;99.90;;;;;;4448596;27;656389;-71
2022/02/02 01:29:59;;;;;;;6.27;3.00;;;0.60;99.90;;;;;;4469354;27;655498;-72
2022/02/02 01:32:47;;;;;;;8.13;4.00;;;0.60;99.90;;;;;;4476106;27;656143;-73
2022/02/02 01:35:34;;;;;;;7.90;4.13;;;0.60;99.90;;;;;;4491423;27;655826;-72
2022/02/02 01:38:24;;;;;;;25.30;4.22;;;0.60;99.90;;;;;;4477812;27;656406;-73
2022/02/02 01:41:21;;;;;;;9.73;4.80;;;0.70;99.90;;;;;;4472644;27;657308;-72
2022/02/02 01:44:16;;;;;;;4.50;2.77;;;0.60;99.90;;;;;;4449996;27;655823;-72
2022/02/02 01:47:05;;;;;;;7.87;4.23;;;0.60;99.90;;;;;;4444987;27;655730;-74
2022/02/02 01:50:12;;;;;;;7.63;3.83;;;0.70;99.90;;;;;;4474328;27;655922;-75
2022/02/02 01:53:11;;;;;;;9.37;4.57;;;0.70;99.90;;;;;;4469332;27;655510;-75
2022/02/02 01:55:59;;;;;;;7.73;4.17;;;0.70;99.90;;;;;;4467162;27;655828;-75
2022/02/02 02:01:49;;;;;;;8.53;4.53;;;0.70;99.90;;;;;;4468779;27;655716;-75
2022/02/02 02:04:37;;;;;;;8.27;4.73;;;0.70;99.90;;;;;;4471211;27;655708;-75
2022/02/02 02:07:24;;;;;;;8.50;3.83;;;0.70;99.90;;;;;;4495053;27;655316;-74
2022/02/02 02:10:12;;;;;;;3.85;2.13;;;0.70;99.90;;;;;;4470517;27;656238;-73
2022/02/02 02:13:05;;;;;;;8.27;4.17;;;0.70;99.90;;;;;;4491999;27;655586;-74
2022/02/02 02:15:53;;;;;;;7.93;3.93;;;0.70;99.90;;;;;;4474314;27;655574;-75
2022/02/02 02:18:41;;;;;;;8.93;4.87;;;0.70;99.90;;;;;;4468890;27;655859;-75
2022/02/02 02:21:29;;;;;;;8.60;3.67;;;0.70;99.90;;;;;;4496428;27;656400;-74
2022/02/02 02:24:18;;;;;;;7.17;4.37;;;0.70;99.90;;;;;;4470551;27;655299;-74
2022/02/02 02:27:07;;;;;;;7.43;3.90;;;0.70;99.90;;;;;;4487113;27;655704;-73
2022/02/02 02:30:04;;;;;;;11.13;5.33;;;0.70;99.90;;;;;;4495027;27;656301;-74
2022/02/02 02:39:29;;;;;;;11.07;4.73;;;0.70;99.90;;;;;;4467040;27;655766;-73
2022/02/02 02:57:57;;;;;;;8.87;4.63;;;0.80;99.90;;;;;;4436508;27;655625;-74
2022/02/02 03:01:10;;;;;;;8.83;4.03;;;0.80;99.90;;;;;;4461557;27;655409;-74
2022/02/02 03:32:27;;;;;;;7.45;3.65;;;1.00;99.90;;;;;;4461744;27;655442;-73
2022/02/02 03:35:25;;;;;;;5.30;2.53;;;1.00;99.90;;;;;;4461076;27;655693;-73
2022/02/02 03:54:02;;;;;;;9.27;3.53;;;1.00;99.90;;;;;;4467604;27;656923;-73
2022/02/02 03:57:19;;;;;;;7.57;4.43;;;1.00;99.90;;;;;;4467112;27;655875;-73
2022/02/02 04:00:23;;;;;;;6.00;3.00;;;1.00;99.90;;;;;;4471088;27;655932;-72
2022/02/02 04:06:18;;;;;;;9.70;4.60;;;1.00;99.90;;;;;;4439689;27;657484;-73
2022/02/02 04:09:06;;;;;;;6.82;3.95;;;1.00;99.90;;;;;;4450450;27;655597;-74
2022/02/02 04:12:01;;;;;;;9.27;4.30;;;1.00;99.90;;;;;;4494582;27;656881;-74
2022/02/02 04:51:58;;;;;;;12.13;6.03;;;1.10;99.90;;;;;;4382191;28;653053;-76
2022/02/02 04:54:50;;;;;;;11.20;5.70;;;1.10;99.90;;;;;;4401501;28;652293;-72
2022/02/02 04:58:00;;;;;;;14.15;6.47;;;1.20;99.90;;;;;;4408644;28;652144;-74
2022/02/02 05:04:20;;;;;;;15.20;6.53;;;1.20;99.90;;;;;;4374921;28;653407;-73
2022/02/02 05:07:12;;;;;;;12.40;4.77;;;1.10;99.90;;;;;;4410610;28;652503;-71
2022/02/02 05:10:10;;;;;;;12.23;6.27;;;1.10;99.90;;;;;;4411499;28;652261;-73
2022/02/02 05:16:20;;;;;;;15.50;6.33;;;1.10;99.90;;;;;;4423018;28;652389;-73
2022/02/02 05:44:27;;;;;;;10.20;6.00;;;1.20;99.90;;;;;;4317731;28;652902;-73
2022/02/02 05:50:37;;;;;;;14.67;7.87;;;1.20;99.90;;;;;;4339230;28;652377;-73
2022/02/02 05:53:25;;;;;;;15.75;8.38;;;1.20;99.90;;;;;;4339745;28;652933;-73
2022/02/02 05:56:13;;;;;;;16.80;8.30;;;1.20;99.90;;;;;;4340574;28;652522;-74
2022/02/02 05:59:00;;;;;;;15.87;6.27;;;1.20;99.90;;;;;;4360189;28;652615;-74
2022/02/02 06:01:51;;;;;;;12.37;6.47;;;1.20;99.90;;;;;;4354545;28;653752;-75
2022/02/02 06:04:44;;;;;;;16.53;8.73;;;1.20;99.90;;;;;;4404912;28;652961;-73
2022/02/02 06:07:35;;;;;;;13.03;6.60;;;1.20;99.90;;;;;;4386818;28;652659;-73
2022/02/02 06:10:24;;;;;;;11.07;5.07;;;1.10;99.90;;;;;;4410229;28;652704;-72
2022/02/02 06:13:12;;;;;;;15.80;9.03;;;1.10;99.90;;;;;;4409295;28;654208;-73
2022/02/02 06:15:59;;;;;;;15.70;8.60;;;1.10;99.90;;;;;;4424085;28;652656;-75
2022/02/02 06:18:53;;;;;;;13.60;6.68;;;1.10;99.90;;;;;;4407992;28;652003;-74
2022/02/02 06:21:41;;;;;;;15.65;8.02;;;1.20;99.90;;;;;;4415134;28;653277;-73
2022/02/02 06:24:31;;;;;;;16.57;8.43;;;1.20;99.90;;;;;;4431516;28;653103;-75
2022/02/02 06:27:21;;;;;;;187.40;12.60;;;1.20;99.90;;;;;;4409178;28;653040;-74
2022/02/02 06:30:10;;;;;;;15.63;8.00;;;1.20;99.90;;;;;;4404488;28;654573;-74
2022/02/02 06:33:02;;;;;;;18.17;8.60;;;1.20;99.90;;;;;;4408370;28;653205;-73
2022/02/02 06:35:51;;;;;;;16.33;7.23;;;1.20;99.90;;;;;;4413967;28;652423;-75
2022/02/02 06:38:39;;;;;;;15.97;7.13;;;1.20;99.90;;;;;;4407755;28;652719;-73
2022/02/02 06:41:29;;;;;;;19.83;7.33;;;1.20;99.90;;;;;;4411541;28;653023;-75
2022/02/02 06:44:16;;;;;;;18.63;8.23;;;1.20;99.90;;;;;;4412621;28;652263;-74
2022/02/02 06:47:05;;;;;;;15.73;7.53;;;1.20;99.90;;;;;;4429630;28;653647;-73
2022/02/02 06:50:02;;;;;;;10.57;5.83;;;1.30;99.90;;;;;;4412389;28;652662;-73
2022/02/02 06:52:59;;;;;;;15.57;7.97;;;1.20;99.90;;;;;;4411186;28;652572;-73
2022/02/02 06:56:02;;;;;;;16.63;7.47;;;1.30;99.90;;;;;;4388824;28;653747;-74
2022/02/02 06:59:05;;;;;;;17.27;7.07;;;1.30;99.90;;;;;;4408826;28;652434;-75
2022/02/02 07:02:12;;;;;;;17.87;8.03;;;1.30;99.90;;;;;;4407494;28;652455;-74
2022/02/02 07:08:25;;;;;;;18.60;9.10;;;1.40;99.90;;;;;;4404797;28;653494;-75
2022/02/02 07:11:21;;;;;;;17.13;7.23;;;1.40;99.90;;;;;;4386817;28;654265;-75
2022/02/02 07:14:19;;;;;;;14.60;7.23;;;1.40;99.90;;;;;;4409805;28;654230;-74
2022/02/02 07:17:18;;;;;;;18.97;9.47;;;1.40;99.90;;;;;;4389968;28;654195;-75
2022/02/02 07:20:14;;;;;;;18.47;7.87;;;1.40;99.90;;;;;;4427596;28;653778;-75
2022/02/02 07:23:24;;;;;;;18.43;8.67;;;1.40;99.90;;;;;;4384876;28;654061;-75
2022/02/02 07:29:26;;;;;;;17.83;8.33;;;1.50;99.90;;;;;;4384726;28;654673;-75
2022/02/02 07:32:18;;;;;;;18.63;8.70;;;1.50;99.90;;;;;;4404231;28;653602;-75
2022/02/02 07:35:12;;;;;;;18.17;9.30;;;1.60;99.90;;;;;;4420344;28;653173;-73
2022/02/02 07:38:03;;;;;;;19.30;8.97;;;1.60;99.90;;;;;;4405013;28;653258;-76
2022/02/02 07:40:51;;;;;;;23.07;9.93;;;1.60;99.90;;;;;;4391590;28;653361;-75
2022/02/02 07:43:42;;;;;;;14.50;7.73;;;1.60;99.90;;;;;;4434405;28;654155;-75
2022/02/02 07:46:31;;;;;;;17.10;8.53;;;1.60;99.90;;;;;;4408312;28;654735;-74
2022/02/02 07:49:19;;;;;;;24.30;10.50;;;1.60;99.90;;;;;;4405865;28;653649;-75
2022/02/02 07:52:08;;;;;;;20.70;9.53;;;1.60;99.90;;;;;;4412236;28;655006;-75
2022/02/02 07:54:58;;;;;;;23.67;10.73;;;1.60;99.90;;;;;;4417018;28;653481;-74
2022/02/02 07:57:48;;;;;;;19.77;10.47;;;1.70;99.90;;;;;;4420338;28;654659;-75
2022/02/02 08:00:36;;;;;;;199.77;13.70;;;1.70;99.90;;;;;;4430273;28;654720;-75
2022/02/02 08:03:27;;;;;;;19.63;8.80;;;1.70;99.90;;;;;;4431239;28;656314;-75
2022/02/02 08:06:14;;;;;;;15.00;5.63;;;1.70;99.90;;;;;;4406297;28;653456;-76
2022/02/02 08:09:02;;;;;;;19.00;7.13;;;1.70;99.90;;;;;;4405868;28;653582;-76
2022/02/02 08:11:51;;;;;;;19.58;7.57;;;1.80;99.90;;;;;;4429483;28;653791;-75
2022/02/02 08:14:41;;;;;;;17.13;7.03;;;1.80;99.90;;;;;;4412359;28;654004;-75
2022/02/02 08:17:28;;;;;;;23.27;8.50;;;1.70;99.90;;;;;;4406283;28;654667;-75
2022/02/02 08:20:18;;;;;;;18.93;8.83;;;1.70;99.90;;;;;;4406004;28;653442;-74
2022/02/02 08:23:06;;;;;;;19.83;8.03;;;1.70;99.90;;;;;;4432048;28;653703;-75
2022/02/02 08:25:56;;;;;;;26.40;9.47;;;1.70;99.90;;;;;;4425670;28;654377;-75
2022/02/02 08:28:45;;;;;;;20.00;10.27;;;1.80;99.90;;;;;;4409454;28;653623;-75
2022/02/02 08:31:33;;;;;;;16.80;6.93;;;1.80;99.90;;;;;;4410418;28;654483;-75
2022/02/02 08:34:21;;;;;;;17.00;7.97;;;1.90;99.90;;;;;;4411448;28;653635;-76
2022/02/02 08:37:10;;;;;;;23.13;10.30;;;1.90;99.90;;;;;;4425525;28;654148;-75
2022/02/02 08:40:10;;;;;;;22.83;6.83;;;1.90;99.90;;;;;;4402756;28;655457;-76
2022/02/02 08:43:07;;;;;;;19.20;9.20;;;1.90;99.90;;;;;;4376910;28;654152;-75
2022/02/02 08:46:00;;;;;;;19.03;9.07;;;1.80;99.90;;;;;;4402364;28;653670;-75
2022/02/02 08:48:51;;;;;;;21.40;8.87;;;1.70;99.90;;;;;;4401660;28;653562;-75
2022/02/02 08:51:41;;;;;;;22.80;9.50;;;1.70;99.90;;;;;;4402368;28;654575;-75
2022/02/02 08:54:34;;;;;;;19.20;8.67;;;1.60;99.90;;;;;;4400018;28;653723;-76
2022/02/02 08:57:41;;;;;;;17.13;6.73;;;1.50;99.90;;;;;;4402562;28;653340;-76
2022/02/02 09:00:32;;;;;;;21.90;10.67;;;1.50;99.90;;;;;;4406191;28;654188;-76
2022/02/02 09:06:28;;;;;;;24.05;10.25;;;1.50;99.90;;;;;;4405975;28;653686;-77
2022/02/02 09:09:19;;;;;;;23.50;10.77;;;1.60;99.90;;;;;;4422643;28;654553;-77
2022/02/02 09:24:46;;;;;;;29.27;10.77;;;1.60;99.90;;;;;;4403872;28;655932;-76
2022/02/02 09:33:55;;;;;;;18.57;8.20;;;1.90;99.90;;;;;;4404575;28;654243;-76
2022/02/02 09:36:44;;;;;;;29.67;10.27;;;2.00;99.90;;;;;;4409784;28;654900;-76
2022/02/02 09:39:38;;;;;;;34.55;11.55;;;2.10;99.90;;;;;;4410003;28;655467;-76
2022/02/02 09:42:26;;;;;;;30.53;11.80;;;2.20;99.90;;;;;;4398842;28;655344;-75
2022/02/02 09:45:17;;;;;;;28.77;11.07;;;2.30;99.90;;;;;;4404786;28;656567;-76
2022/02/02 09:48:12;;;;;;;25.23;10.60;;;2.40;99.90;;;;;;4405562;28;656097;-76
2022/02/02 09:51:05;;;;;;;27.93;10.47;;;2.30;99.90;;;;;;4406563;28;655112;-77
2022/02/02 09:53:59;;;;;;;26.67;10.17;;;2.30;99.90;;;;;;4393881;28;655686;-76
2022/02/02 10:00:13;;;;;;;22.20;8.87;;;2.30;99.90;;;;;;4974933;27;131365;-78
2022/02/02 10:03:22;;;;;;;22.08;9.65;;;2.30;99.90;;;;;;4432682;27;650017;-77
2022/02/02 10:06:17;;;;;;;26.57;9.57;;;2.30;99.90;;;;;;4455595;27;651107;-76
2022/02/02 10:09:20;;;;;;;27.83;9.63;;;2.30;99.90;;;;;;4461011;27;650506;-79
2022/02/02 10:12:45;;;;;;;15.93;7.03;;;2.40;99.90;;;;;;4444384;28;650990;-76
2022/02/02 10:15:35;;;;;;;21.03;6.57;;;2.60;99.90;;;;;;4420401;28;650660;-77
2022/02/02 10:18:29;;;;;;;23.13;7.60;;;2.70;99.90;;;;;;4437906;28;651859;-77
2022/02/02 10:21:31;;;;;;;24.57;7.33;;;2.70;99.90;;;;;;4410070;28;653667;-76
2022/02/02 10:24:18;;;;;;;24.83;6.97;;;2.80;99.90;;;;;;4436007;28;651449;-77
2022/02/02 10:27:06;;;;;;;19.93;8.27;;;3.00;99.90;;;;;;4439204;28;651901;-78
2022/02/02 10:29:54;;;;;;;24.00;7.83;;;3.10;99.90;;;;;;4459085;28;653347;-77
2022/02/02 10:32:43;;;;;;;20.70;7.67;;;3.30;99.90;;;;;;4441402;28;652447;-77
2022/02/02 10:35:33;;;;;;;19.57;7.63;;;3.20;99.90;;;;;;4440332;28;652705;-78
2022/02/02 10:38:27;;;;;;;23.80;9.07;;;3.20;99.90;;;;;;4443883;28;652406;-77
2022/02/02 10:41:20;;;;;;;18.60;6.87;;;3.30;99.90;;;;;;4437742;28;653194;-78
2022/02/02 10:44:16;;;;;;;21.33;8.90;;;3.40;99.90;;;;;;4436795;28;653597;-77
2022/02/02 10:47:13;;;;;;;24.93;8.87;;;3.40;99.90;;;;;;4438887;28;652653;-77
2022/02/02 10:50:20;;;;;;;21.27;9.13;;;3.40;99.90;;;;;;4412392;28;652815;-77
2022/02/02 10:53:26;;;;;;;33.13;7.60;;;3.40;99.90;;;;;;4440050;28;652609;-80
2022/02/02 10:56:31;;;;;;;23.90;6.47;;;3.40;99.90;;;;;;4435631;28;652888;-77
2022/02/02 11:08:35;;;;;;;21.30;7.00;;;4.10;99.90;;;;;;4433520;28;652535;-77
2022/02/02 11:11:22;;;;;;;17.07;4.80;;;4.20;99.90;;;;;;4430729;28;652368;-75
2022/02/02 11:14:18;;;;;;;17.10;6.50;;;4.30;99.90;;;;;;4452431;28;653304;-77
2022/02/02 11:17:07;;;;;;;17.33;5.57;;;4.30;99.90;;;;;;4442604;28;652325;-77
2022/02/02 11:19:58;;;;;;;11.53;4.60;;;4.30;99.90;;;;;;4449534;28;651804;-78
2022/02/02 11:22:51;;;;;;;7.17;3.00;;;4.50;99.90;;;;;;4443090;28;652719;-79
2022/02/02 11:25:41;;;;;;;13.97;4.37;;;4.90;99.90;;;;;;4427098;28;652059;-77
2022/02/02 11:28:33;;;;;;;13.87;4.70;;;5.00;99.90;;;;;;4430170;28;654365;-80
2022/02/02 11:31:21;;;;;;;9.40;3.63;;;5.00;99.90;;;;;;4410951;28;652606;-77
2022/02/02 11:34:08;;;;;;;11.67;3.20;;;5.00;99.90;;;;;;4450896;28;651473;-76
2022/02/02 11:36:56;;;;;;;15.80;3.60;;;4.90;99.90;;;;;;4430601;28;652344;-79
2022/02/02 11:39:50;;;;;;;10.70;2.93;;;4.90;99.90;;;;;;4443188;28;653450;-80
2022/02/02 11:42:52;;;;;;;6.90;1.93;;;4.80;99.90;;;;;;4421934;28;652916;-81
2022/02/02 11:45:54;;;;;;;13.70;3.13;;;4.60;99.90;;;;;;4424661;28;651438;-80
2022/02/02 11:49:07;;;;;;;9.90;2.57;;;4.60;99.90;;;;;;4422419;28;653341;-81
2022/02/02 11:51:57;;;;;;;12.27;3.47;;;4.50;99.90;;;;;;4418492;28;651406;-79
2022/02/02 11:54:49;;;;;;;14.80;3.90;;;4.40;99.90;;;;;;4421061;28;652704;-79
2022/02/02 11:57:57;;;;;;;10.97;2.43;;;4.40;99.90;;;;;;4424873;28;652322;-79
2022/02/02 12:00:53;;;;;;;14.23;3.93;;;4.30;99.90;;;;;;4417683;28;652406;-78
2022/02/02 12:03:51;;;;;;;15.23;3.17;;;4.40;99.90;;;;;;4411275;28;652297;-77
2022/02/02 12:06:56;;;;;;;13.53;3.50;;;4.80;99.90;;;;;;4417982;28;653173;-80
2022/02/02 12:09:54;;;;;;;13.17;3.90;;;5.20;99.90;;;;;;4425070;28;653214;-80
2022/02/02 12:19:20;;;;;;;17.53;4.17;;;5.50;99.90;;;;;;4422803;28;652421;-80
2022/02/02 12:47:25;;;;;;;16.03;5.20;;;3.80;99.90;;;;;;4423155;28;654155;-77
2022/02/02 12:50:29;;;;;;;14.93;4.03;;;3.60;99.90;;;;;;4400837;28;654826;-78
2022/02/02 12:56:34;;;;;;;20.30;5.53;;;3.40;99.90;;;;;;4406673;28;653936;-76
2022/02/02 12:59:54;;;;;;;12.33;4.27;;;3.40;99.90;;;;;;4428435;28;653430;-81
2022/02/02 13:02:45;;;;;;;17.47;5.50;;;3.40;99.90;;;;;;4402122;28;654174;-81
2022/02/02 13:05:33;;;;;;;14.47;4.63;;;3.40;99.90;;;;;;4423163;28;654139;-82
2022/02/02 13:08:20;;;;;;;15.03;5.43;;;3.40;99.90;;;;;;4447303;28;653942;-79
2022/02/02 13:11:08;;;;;;;16.23;5.00;;;3.50;99.90;;;;;;4423947;28;654514;-80
2022/02/02 13:14:00;;;;;;;16.27;4.70;;;3.90;99.90;;;;;;4432126;28;653442;-77
2022/02/02 13:16:49;;;;;;;16.80;5.70;;;4.00;99.90;;;;;;4424623;28;653860;-77
2022/02/02 13:19:42;;;;;;;17.67;5.77;;;4.00;99.90;;;;;;4421381;28;654343;-79
2022/02/02 13:22:32;;;;;;;16.50;5.33;;;3.90;99.90;;;;;;4417346;28;655124;-78
2022/02/02 13:25:21;;;;;;;17.80;5.37;;;3.90;99.90;;;;;;4422122;28;653709;-77
2022/02/02 13:28:10;;;;;;;18.87;5.87;;;4.00;99.90;;;;;;4421102;28;653534;-78
2022/02/02 13:30:59;;;;;;;18.90;5.47;;;3.90;99.90;;;;;;4428405;28;654150;-78
2022/02/02 13:33:50;;;;;;;24.13;5.60;;;3.80;99.90;;;;;;4423795;28;653084;-78
2022/02/02 13:36:53;;;;;;;20.50;5.50;;;3.80;99.90;;;;;;4423909;28;653460;-79
2022/02/02 13:43:03;;;;;;;7.43;3.50;;;3.90;99.90;;;;;;4424990;28;654530;-80
2022/02/02 13:49:28;;;;;;;18.53;5.53;;;3.80;99.90;;;;;;4405894;28;653556;-78
2022/02/02 13:52:35;;;;;;;11.33;4.13;;;3.80;99.90;;;;;;4424644;28;653693;-79
2022/02/02 13:55:33;;;;;;;12.37;4.73;;;3.60;99.90;;;;;;4424709;28;653714;-79
2022/02/02 13:58:41;;;;;;;14.37;4.27;;;3.40;99.90;;;;;;4409725;28;653536;-77
2022/02/02 14:01:35;;;;;;;13.23;4.90;;;3.30;99.90;;;;;;4406102;28;654055;-78
2022/02/02 14:04:36;;;;;;;14.27;5.20;;;3.10;99.90;;;;;;4429168;28;653606;-77
2022/02/02 14:07:30;;;;;;;16.40;4.73;;;3.10;99.90;;;;;;4426071;28;653802;-80
2022/02/02 14:10:35;;;;;;;9.40;3.83;;;3.00;99.90;;;;;;4403226;28;653857;-79
2022/02/02 14:31:59;;;;;;;11.90;4.23;;;2.50;99.90;;;;;;4425684;28;653331;-81
2022/02/02 14:34:48;;;;;;;10.03;3.70;;;2.30;99.90;;;;;;4426657;28;653408;-79
2022/02/02 14:37:42;;;;;;;6.77;3.10;;;2.10;99.90;;;;;;4432041;28;653772;-79
2022/02/02 14:40:37;;;;;;;11.87;3.60;;;2.00;99.90;;;;;;4433025;28;652981;-79
2022/02/02 14:43:31;;;;;;;12.73;4.07;;;1.80;99.90;;;;;;4430300;28;654373;-79
2022/02/02 14:46:23;;;;;;;11.50;3.83;;;1.80;99.90;;;;;;4432887;28;654172;-79
2022/02/02 14:49:12;;;;;;;13.90;4.00;;;1.70;99.90;;;;;;4409727;28;653495;-78
2022/02/02 14:52:08;;;;;;;13.47;4.60;;;1.60;99.90;;;;;;4457135;28;653845;-77
2022/02/02 14:55:34;;;;;;;11.07;4.67;;;1.60;99.90;;;;;;4420628;28;654368;-77
2022/02/02 15:29:40;;;;;;;12.65;5.60;;;1.60;99.90;;;;;;4386917;28;654599;-78
2022/02/02 15:32:30;;;;;;;10.97;5.07;;;1.70;99.90;;;;;;4392790;28;655031;-79
2022/02/02 15:35:19;;;;;;;16.20;5.83;;;1.70;99.90;;;;;;4382823;28;654928;-79
2022/02/02 15:38:14;;;;;;;14.73;6.03;;;1.70;99.90;;;;;;4392557;28;654614;-78
2022/02/02 15:41:06;;;;;;;17.67;7.30;;;1.70;99.90;;;;;;4386027;28;654282;-78
2022/02/02 15:44:56;;;;;;;19.70;7.70;;;1.70;99.90;;;;;;4390400;28;655420;-78
2022/02/02 16:00:02;;;;;;;19.80;7.27;;;1.80;99.90;;;;;;4386136;28;656121;-77
2022/02/02 16:03:03;;;;;;;19.02;8.00;;;1.80;99.90;;;;;;4354704;28;654772;-78
2022/02/02 16:05:54;;;;;;;10.37;5.57;;;1.70;99.90;;;;;;4384843;28;654407;-78
2022/02/02 16:08:44;;;;;;;18.40;6.80;;;1.70;99.90;;;;;;4383330;28;654023;-79
2022/02/02 16:11:33;;;;;;;31.57;8.77;;;1.70;99.90;;;;;;4394956;28;655081;-80
2022/02/02 16:14:27;;;;;;;14.93;5.60;;;1.80;99.90;;;;;;4404970;28;654777;-78
2022/02/02 16:17:38;;;;;;;21.63;8.47;;;1.80;99.90;;;;;;4386807;28;654837;-79
2022/02/02 16:33:21;;;;;;;17.73;7.30;;;1.80;99.90;;;;;;4359410;28;655406;-78
2022/02/02 16:36:12;;;;;;;15.83;6.63;;;1.70;99.90;;;;;;4396705;28;654762;-81
2022/02/02 16:39:06;;;;;;;13.83;6.73;;;1.70;99.90;;;;;;4423617;28;654741;-80
2022/02/02 16:45:00;;;;;;;18.60;7.33;;;1.80;99.90;;;;;;4417632;28;654787;-80
2022/02/02 16:47:48;;;;;;;14.57;6.13;;;1.70;99.90;;;;;;4421107;28;656327;-81
2022/02/02 16:50:38;;;;;;;16.97;7.10;;;1.60;99.90;;;;;;4438588;28;654565;-78
2022/02/02 16:53:33;;;;;;;14.77;6.53;;;1.50;99.90;;;;;;4443813;28;654225;-78
2022/02/02 16:56:30;;;;;;;12.60;6.32;;;1.40;99.90;;;;;;4420214;28;654381;-78
2022/02/02 17:24:28;;;;;;;5.13;1.93;;;1.20;99.90;;;;;;4418114;28;654166;-79
2022/02/02 17:30:32;;;;;;;3.77;1.90;;;1.20;99.90;;;;;;4426274;28;653226;-80
2022/02/02 17:33:24;;;;;;;6.30;2.63;;;1.20;99.90;;;;;;4426750;28;653165;-81
2022/02/02 17:36:21;;;;;;;6.55;2.53;;;1.10;99.90;;;;;;4424838;28;653837;-79
2022/02/02 17:39:11;;;;;;;7.43;2.50;;;1.00;99.90;;;;;;4410106;28;654112;-80
2022/02/02 17:42:28;;;;;;;7.43;2.72;;;1.00;99.90;;;;;;4416957;28;654391;-80
2022/02/02 17:45:32;;;;;;;9.70;2.97;;;1.00;99.90;;;;;;4410751;28;653175;-79
2022/02/02 18:16:56;;;;;;;7.83;4.00;;;0.80;99.90;;;;;;4419953;28;653273;-80
2022/02/02 18:19:33;;;;;;;10.07;4.50;;;0.80;99.90;;;;;;4422383;28;653567;-81
2022/02/02 18:22:24;;;;;;;9.33;3.83;;;0.90;99.90;;;;;;4416911;28;654795;-81
2022/02/02 18:25:19;;;;;;;12.45;5.57;;;0.90;99.90;;;;;;4424448;28;653057;-80
2022/02/02 18:28:13;;;;;;;10.37;5.33;;;0.90;99.90;;;;;;4398745;28;654859;-79
2022/02/02 18:31:12;;;;;;;13.37;5.30;;;0.90;99.90;;;;;;4418613;28;654059;-80
2022/02/02 18:34:10;;;;;;;12.43;5.97;;;0.90;99.90;;;;;;4426445;28;654448;-81
2022/02/02 18:37:33;;;;;;;13.97;6.87;;;0.90;99.90;;;;;;4421711;28;654619;-80
2022/02/02 18:46:54;;;;;;;16.57;8.37;;;0.90;99.90;;;;;;4407122;28;654487;-80
2022/02/02 18:53:14;;;;;;;16.07;7.50;;;0.80;99.90;;;;;;4420027;28;653936;-81
2022/02/02 18:56:23;;;;;;;17.20;7.20;;;0.70;99.90;;;;;;4422398;28;655247;-73
2022/02/02 18:59:23;;;;;;;16.87;7.83;;;0.70;99.90;;;;;;4416183;28;655980;-72
2022/02/02 19:02:24;;;;;;;15.07;7.63;;;0.70;99.90;;;;;;4409202;28;654865;-72
2022/02/02 20:07:44;;;;;;;26.97;11.17;;;0.80;99.90;;;;;;4393610;28;656320;-78
2022/02/02 20:10:45;;;;;;;21.77;10.53;;;0.80;99.90;;;;;;4398301;28;656081;-77
2022/02/02 20:13:35;;;;;;;26.53;10.90;;;0.70;99.90;;;;;;4423592;28;655768;-77
2022/02/02 20:16:22;;;;;;;27.77;11.43;;;0.70;99.90;;;;;;4426024;28;655637;-78
2022/02/02 20:19:12;;;;;;;18.33;9.40;;;0.70;99.90;;;;;;4447726;28;655109;-76
2022/02/02 20:22:00;;;;;;;21.43;10.67;;;0.70;99.90;;;;;;4423174;28;655214;-76
2022/02/02 20:24:53;;;;;;;21.23;9.37;;;0.80;99.90;;;;;;4419781;28;656832;-77
2022/02/02 20:27:51;;;;;;;25.70;8.82;;;0.70;99.90;;;;;;4395710;28;654831;-79
2022/02/02 20:30:39;;;;;;;18.53;8.73;;;0.60;99.90;;;;;;4415392;28;655283;-76
2022/02/02 20:33:27;;;;;;;24.80;10.70;;;0.70;99.90;;;;;;4420399;28;654677;-77
2022/02/02 20:36:15;;;;;;;26.10;10.93;;;0.60;99.90;;;;;;4442280;28;655406;-77
2022/02/02 20:39:09;;;;;;;25.20;10.57;;;0.60;99.90;;;;;;4420863;28;657341;-76
2022/02/02 20:42:01;;;;;;;22.03;10.83;;;0.60;99.90;;;;;;4390375;28;656127;-77
2022/02/02 20:45:07;;;;;;;22.13;10.97;;;0.60;99.90;;;;;;4417255;28;656447;-78
2022/02/02 21:00:35;;;;;;;27.20;10.83;;;0.50;99.90;;;;;;4398467;28;654526;-77
2022/02/02 21:03:43;;;;;;;23.63;11.17;;;0.60;99.90;;;;;;4401538;28;655523;-77
2022/02/02 21:06:42;;;;;;;22.63;10.33;;;0.60;99.90;;;;;;4404343;28;655807;-79
2022/02/02 21:09:45;;;;;;;26.10;11.00;;;0.60;99.90;;;;;;4400282;28;656500;-78
2022/02/02 21:15:40;;;;;;;22.33;11.07;;;0.60;99.90;;;;;;4407776;28;655818;-77
2022/02/02 21:18:33;;;;;;;27.13;11.13;;;0.60;99.90;;;;;;4403340;28;655831;-77
2022/02/02 21:21:24;;;;;;;25.23;11.93;;;0.60;99.90;;;;;;4388070;28;655791;-78
2022/02/02 21:24:33;;;;;;;23.07;9.50;;;0.60;99.90;;;;;;4401666;28;655990;-77
2022/02/02 21:27:26;;;;;;;25.33;11.30;;;0.60;99.90;;;;;;4407411;28;654747;-78
2022/02/02 21:30:14;;;;;;;24.20;11.83;;;0.50;99.90;;;;;;4401563;28;656755;-78
2022/02/02 21:33:03;;;;;;;21.97;10.90;;;0.50;99.90;;;;;;4403836;28;655952;-78
2022/02/02 21:35:51;;;;;;;29.80;11.95;;;0.60;99.90;;;;;;4422081;28;656799;-78
2022/02/02 21:38:53;;;;;;;20.83;10.30;;;0.60;99.90;;;;;;4425018;28;655645;-77
2022/02/02 21:41:45;;;;;;;27.83;12.03;;;0.50;99.90;;;;;;4382916;28;655958;-78
2022/02/02 21:44:33;;;;;;;25.97;11.67;;;0.50;99.90;;;;;;4402968;28;655982;-77
2022/02/02 21:47:23;;;;;;;25.53;11.07;;;0.60;99.90;;;;;;4423890;28;655266;-77
2022/02/02 21:50:16;;;;;;;24.57;11.30;;;0.60;99.90;;;;;;4417798;28;655434;-78
2022/02/02 21:53:03;;;;;;;22.93;11.43;;;0.60;99.90;;;;;;4409535;28;656268;-77
2022/02/02 21:55:51;;;;;;;23.47;11.00;;;0.50;99.90;;;;;;4401835;28;655795;-77
2022/02/02 21:58:39;;;;;;;28.43;11.00;;;0.50;99.90;;;;;;4434916;28;656183;-78
2022/02/02 22:01:27;;;;;;;23.73;10.93;;;0.50;99.90;;;;;;4419446;28;656429;-77
2022/02/02 22:04:14;;;;;;;24.93;11.70;;;0.50;99.90;;;;;;4441520;28;656302;-77
2022/02/02 22:07:04;;;;;;;20.10;9.67;;;0.50;99.90;;;;;;4420312;28;655752;-78
2022/02/02 22:09:55;;;;;;;22.38;9.82;;;0.50;99.90;;;;;;4425200;28;655031;-77
2022/02/02 22:12:43;;;;;;;23.30;11.45;;;0.50;99.90;;;;;;4426235;28;655007;-77
2022/02/02 22:15:39;;;;;;;23.23;11.47;;;0.60;99.90;;;;;;4418592;28;656590;-77
2022/02/02 22:18:27;;;;;;;26.13;11.40;;;0.60;99.90;;;;;;4421162;28;656449;-78
2022/02/02 22:21:15;;;;;;;24.73;10.93;;;0.60;99.90;;;;;;4451484;28;655486;-77
2022/02/02 22:24:04;;;;;;;23.30;10.07;;;0.60;99.90;;;;;;4421731;28;656342;-77
2022/02/02 22:26:52;;;;;;;26.50;9.93;;;0.60;99.90;;;;;;4425711;28;655679;-77
2022/02/02 22:29:40;;;;;;;21.67;10.67;;;0.50;99.90;;;;;;4445363;28;654872;-78
2022/02/02 22:32:28;;;;;;;23.13;9.70;;;0.50;99.90;;;;;;4413559;28;655631;-78
2022/02/02 22:35:16;;;;;;;23.87;10.90;;;0.60;99.90;;;;;;4440050;28;654073;-77
2022/02/02 22:38:03;;;;;;;24.63;11.80;;;0.50;99.90;;;;;;4442351;28;656361;-77